sensor_id;sensor_type;location;lat;lon;timestamp;pressure;altitude;pressure_sealevel;temperature;humidity
35758;BME280;21879;50.110;18.900;2024-01-06T00:10:47;97610.77;;;22.38;59.09
35758;BME280;21879;50.110;18.900;2024-01-06T00:21:15;97606.89;;;22.38;59.06
35758;BME280;21879;50.110;18.900;2024-01-06T00:31:43;97601.55;;;22.36;59.02
35758;BME280;21879;50.110;18.900;2024-01-06T00:42:11;97589.69;;;22.33;58.96
35758;BME280;21879;50.110;18.900;2024-01-06T00:52:38;97594.74;;;22.35;58.83
35758;BME280;21879;50.110;18.900;2024-01-06T01:03:06;97599.23;;;22.41;58.82
35758;BME280;21879;50.110;18.900;2024-01-06T01:13:33;97611.73;;;22.46;58.43
35758;BME280;21879;50.110;18.900;2024-01-06T01:24:01;97621.66;;;22.51;58.19
35758;BME280;21879;50.110;18.900;2024-01-06T01:34:28;97621.74;;;22.55;57.95
35758;BME280;21879;50.110;18.900;2024-01-06T01:44:56;97614.79;;;22.58;57.82
35758;BME280;21879;50.110;18.900;2024-01-06T01:55:24;97610.73;;;22.60;57.61
35758;BME280;21879;50.110;18.900;2024-01-06T02:05:51;97605.90;;;22.60;57.42
35758;BME280;21879;50.110;18.900;2024-01-06T02:16:19;97612.77;;;22.61;57.26
35758;BME280;21879;50.110;18.900;2024-01-06T02:26:46;97621.44;;;22.61;57.19
35758;BME280;21879;50.110;18.900;2024-01-06T02:37:14;97606.25;;;22.60;57.05
35758;BME280;21879;50.110;18.900;2024-01-06T02:47:41;97586.27;;;22.60;57.00
35758;BME280;21879;50.110;18.900;2024-01-06T02:58:08;97585.85;;;22.61;56.79
35758;BME280;21879;50.110;18.900;2024-01-06T03:08:36;97581.94;;;22.61;56.53
35758;BME280;21879;50.110;18.900;2024-01-06T03:19:03;97590.11;;;22.61;56.38
35758;BME280;21879;50.110;18.900;2024-01-06T03:29:31;97585.88;;;22.60;56.32
35758;BME280;21879;50.110;18.900;2024-01-06T03:39:58;97574.10;;;22.59;56.14
35758;BME280;21879;50.110;18.900;2024-01-06T03:50:26;97574.96;;;22.57;56.17
35758;BME280;21879;50.110;18.900;2024-01-06T04:00:54;97578.16;;;22.52;56.23
35758;BME280;21879;50.110;18.900;2024-01-06T04:11:22;97578.86;;;22.48;56.34
35758;BME280;21879;50.110;18.900;2024-01-06T04:21:50;97589.66;;;22.43;56.22
35758;BME280;21879;50.110;18.900;2024-01-06T04:32:18;97594.55;;;22.40;56.12
35758;BME280;21879;50.110;18.900;2024-01-06T04:42:46;97599.92;;;22.36;56.10
35758;BME280;21879;50.110;18.900;2024-01-06T04:53:14;97597.34;;;22.33;55.93
35758;BME280;21879;50.110;18.900;2024-01-06T05:03:41;97599.19;;;22.29;55.87
35758;BME280;21879;50.110;18.900;2024-01-06T05:14:10;97597.99;;;22.26;55.81
35758;BME280;21879;50.110;18.900;2024-01-06T05:24:37;97594.70;;;22.23;55.76
35758;BME280;21879;50.110;18.900;2024-01-06T05:35:06;97592.35;;;22.21;55.69
35758;BME280;21879;50.110;18.900;2024-01-06T05:45:34;97595.34;;;22.19;55.61
35758;BME280;21879;50.110;18.900;2024-01-06T05:56:04;97599.40;;;22.17;55.47
35758;BME280;21879;50.110;18.900;2024-01-06T06:06:32;97609.13;;;22.15;55.46
35758;BME280;21879;50.110;18.900;2024-01-06T06:17:00;97620.04;;;22.13;55.46
35758;BME280;21879;50.110;18.900;2024-01-06T06:27:28;97629.36;;;22.11;55.27
35758;BME280;21879;50.110;18.900;2024-01-06T06:37:56;97636.17;;;22.10;55.14
35758;BME280;21879;50.110;18.900;2024-01-06T06:48:23;97643.88;;;22.09;55.06
35758;BME280;21879;50.110;18.900;2024-01-06T06:58:51;97640.73;;;22.09;54.86
35758;BME280;21879;50.110;18.900;2024-01-06T07:09:20;97642.88;;;22.08;54.55
35758;BME280;21879;50.110;18.900;2024-01-06T07:19:49;97642.26;;;22.12;54.55
35758;BME280;21879;50.110;18.900;2024-01-06T07:30:17;97649.09;;;22.18;54.32
35758;BME280;21879;50.110;18.900;2024-01-06T07:40:45;97652.39;;;22.24;54.10
35758;BME280;21879;50.110;18.900;2024-01-06T07:51:12;97659.33;;;22.23;54.08
35758;BME280;21879;50.110;18.900;2024-01-06T08:01:40;97663.15;;;22.19;54.01
35758;BME280;21879;50.110;18.900;2024-01-06T08:12:09;97678.42;;;22.16;53.94
35758;BME280;21879;50.110;18.900;2024-01-06T08:22:37;97695.52;;;22.15;53.96
35758;BME280;21879;50.110;18.900;2024-01-06T08:33:05;97693.14;;;22.13;54.06
35758;BME280;21879;50.110;18.900;2024-01-06T08:43:33;97698.67;;;22.15;53.86
35758;BME280;21879;50.110;18.900;2024-01-06T08:54:01;97702.41;;;22.14;53.79
35758;BME280;21879;50.110;18.900;2024-01-06T09:04:30;97704.38;;;22.14;53.77
35758;BME280;21879;50.110;18.900;2024-01-06T09:14:58;97705.06;;;22.12;53.76
35758;BME280;21879;50.110;18.900;2024-01-06T09:25:26;97706.52;;;22.12;53.82
35758;BME280;21879;50.110;18.900;2024-01-06T09:35:54;97715.16;;;22.12;53.82
35758;BME280;21879;50.110;18.900;2024-01-06T09:46:26;97715.19;;;22.14;53.88
35758;BME280;21879;50.110;18.900;2024-01-06T09:56:55;97713.19;;;22.18;53.82
35758;BME280;21879;50.110;18.900;2024-01-06T10:07:37;97715.48;;;22.20;53.61
35758;BME280;21879;50.110;18.900;2024-01-06T10:18:05;97714.29;;;22.24;52.69
35758;BME280;21879;50.110;18.900;2024-01-06T10:28:34;97712.56;;;22.26;52.19
35758;BME280;21879;50.110;18.900;2024-01-06T10:39:04;97711.29;;;22.27;52.29
35758;BME280;21879;50.110;18.900;2024-01-06T10:49:33;97711.42;;;22.27;52.25
35758;BME280;21879;50.110;18.900;2024-01-06T11:00:03;97699.96;;;22.29;51.92
35758;BME280;21879;50.110;18.900;2024-01-06T11:10:33;97698.88;;;22.30;51.78
35758;BME280;21879;50.110;18.900;2024-01-06T11:21:20;97701.54;;;22.27;51.47
35758;BME280;21879;50.110;18.900;2024-01-06T11:32:19;97696.95;;;22.27;51.43
35758;BME280;21879;50.110;18.900;2024-01-06T11:42:47;97686.27;;;22.32;51.34
35758;BME280;21879;50.110;18.900;2024-01-06T11:53:15;97687.61;;;22.38;51.16
35758;BME280;21879;50.110;18.900;2024-01-06T12:03:43;97678.31;;;22.42;51.20
35758;BME280;21879;50.110;18.900;2024-01-06T12:14:11;97681.57;;;22.41;51.20
35758;BME280;21879;50.110;18.900;2024-01-06T12:24:39;97686.08;;;22.37;51.19
35758;BME280;21879;50.110;18.900;2024-01-06T12:35:08;97685.88;;;22.35;51.61
35758;BME280;21879;50.110;18.900;2024-01-06T12:45:36;97690.36;;;22.35;51.81
35758;BME280;21879;50.110;18.900;2024-01-06T12:56:05;97691.71;;;22.33;51.95
35758;BME280;21879;50.110;18.900;2024-01-06T13:06:34;97691.35;;;22.33;52.15
35758;BME280;21879;50.110;18.900;2024-01-06T13:17:02;97699.66;;;22.31;51.90
35758;BME280;21879;50.110;18.900;2024-01-06T13:27:30;97709.71;;;22.32;52.10
35758;BME280;21879;50.110;18.900;2024-01-06T13:37:58;97712.42;;;22.31;52.19
35758;BME280;21879;50.110;18.900;2024-01-06T13:48:25;97708.13;;;22.31;52.24
35758;BME280;21879;50.110;18.900;2024-01-06T13:58:54;97719.30;;;22.34;52.18
35758;BME280;21879;50.110;18.900;2024-01-06T14:09:22;97734.01;;;22.39;52.35
35758;BME280;21879;50.110;18.900;2024-01-06T14:19:49;97741.17;;;22.47;52.56
35758;BME280;21879;50.110;18.900;2024-01-06T14:30:19;97757.02;;;22.50;52.74
35758;BME280;21879;50.110;18.900;2024-01-06T14:40:47;97760.17;;;22.49;52.69
35758;BME280;21879;50.110;18.900;2024-01-06T14:51:15;97765.48;;;22.46;52.80
35758;BME280;21879;50.110;18.900;2024-01-06T15:01:45;97777.67;;;22.44;52.91
35758;BME280;21879;50.110;18.900;2024-01-06T15:12:13;97787.29;;;22.43;52.86
35758;BME280;21879;50.110;18.900;2024-01-06T15:22:42;97793.45;;;22.42;52.78
35758;BME280;21879;50.110;18.900;2024-01-06T15:33:10;97802.23;;;22.40;52.84
35758;BME280;21879;50.110;18.900;2024-01-06T15:43:38;97809.58;;;22.42;53.12
35758;BME280;21879;50.110;18.900;2024-01-06T15:54:06;97817.71;;;22.42;53.10
35758;BME280;21879;50.110;18.900;2024-01-06T16:04:33;97818.67;;;22.43;53.33
35758;BME280;21879;50.110;18.900;2024-01-06T16:15:01;97819.58;;;22.45;53.28
35758;BME280;21879;50.110;18.900;2024-01-06T16:25:29;97817.90;;;22.44;53.20
35758;BME280;21879;50.110;18.900;2024-01-06T16:35:57;97821.50;;;22.41;53.10
35758;BME280;21879;50.110;18.900;2024-01-06T16:46:25;97823.98;;;22.39;52.95
35758;BME280;21879;50.110;18.900;2024-01-06T16:56:53;97828.54;;;22.36;52.87
35758;BME280;21879;50.110;18.900;2024-01-06T17:07:21;97835.56;;;22.35;52.76
35758;BME280;21879;50.110;18.900;2024-01-06T17:17:49;97842.79;;;22.33;52.70
35758;BME280;21879;50.110;18.900;2024-01-06T17:28:17;97844.65;;;22.31;52.71
35758;BME280;21879;50.110;18.900;2024-01-06T17:38:45;97850.54;;;22.31;52.84
35758;BME280;21879;50.110;18.900;2024-01-06T17:49:13;97857.05;;;22.31;53.14
35758;BME280;21879;50.110;18.900;2024-01-06T17:59:41;97857.69;;;22.33;53.02
35758;BME280;21879;50.110;18.900;2024-01-06T18:10:09;97864.81;;;22.37;52.83
35758;BME280;21879;50.110;18.900;2024-01-06T18:20:37;97865.88;;;22.42;52.62
35758;BME280;21879;50.110;18.900;2024-01-06T18:31:13;97874.62;;;22.46;52.30
35758;BME280;21879;50.110;18.900;2024-01-06T18:41:41;97881.16;;;22.48;52.18
35758;BME280;21879;50.110;18.900;2024-01-06T18:52:08;97879.11;;;22.50;52.14
35758;BME280;21879;50.110;18.900;2024-01-06T19:02:36;97885.75;;;22.51;51.99
35758;BME280;21879;50.110;18.900;2024-01-06T19:13:04;97887.31;;;22.54;52.61
35758;BME280;21879;50.110;18.900;2024-01-06T19:23:34;97886.50;;;22.58;52.82
35758;BME280;21879;50.110;18.900;2024-01-06T19:34:02;97892.29;;;22.62;53.24
35758;BME280;21879;50.110;18.900;2024-01-06T19:44:30;97901.77;;;22.65;53.39
35758;BME280;21879;50.110;18.900;2024-01-06T19:54:57;97906.13;;;22.68;53.25
35758;BME280;21879;50.110;18.900;2024-01-06T20:05:26;97903.71;;;22.70;53.11
35758;BME280;21879;50.110;18.900;2024-01-06T20:15:54;97905.02;;;22.69;52.87
35758;BME280;21879;50.110;18.900;2024-01-06T20:26:22;97903.45;;;22.69;52.57
35758;BME280;21879;50.110;18.900;2024-01-06T20:36:53;97906.66;;;22.69;52.38
35758;BME280;21879;50.110;18.900;2024-01-06T20:47:21;97906.84;;;22.68;52.18
35758;BME280;21879;50.110;18.900;2024-01-06T20:57:49;97914.27;;;22.69;52.25
35758;BME280;21879;50.110;18.900;2024-01-06T21:08:16;97918.59;;;22.70;52.18
35758;BME280;21879;50.110;18.900;2024-01-06T21:18:44;97918.83;;;22.72;52.02
35758;BME280;21879;50.110;18.900;2024-01-06T21:29:12;97918.13;;;22.72;51.92
35758;BME280;21879;50.110;18.900;2024-01-06T21:39:39;97925.63;;;22.71;51.84
35758;BME280;21879;50.110;18.900;2024-01-06T21:50:09;97931.91;;;22.69;51.77
35758;BME280;21879;50.110;18.900;2024-01-06T22:00:39;97933.45;;;22.68;51.78
35758;BME280;21879;50.110;18.900;2024-01-06T22:11:08;97935.30;;;22.67;51.57
35758;BME280;21879;50.110;18.900;2024-01-06T22:21:40;97940.02;;;22.65;51.44
35758;BME280;21879;50.110;18.900;2024-01-06T22:32:11;97937.98;;;22.64;51.28
35758;BME280;21879;50.110;18.900;2024-01-06T22:42:39;97941.63;;;22.63;51.31
35758;BME280;21879;50.110;18.900;2024-01-06T22:53:06;97944.69;;;22.62;51.17
35758;BME280;21879;50.110;18.900;2024-01-06T23:03:34;97947.98;;;22.61;51.00
35758;BME280;21879;50.110;18.900;2024-01-06T23:14:01;97956.11;;;22.58;51.00
35758;BME280;21879;50.110;18.900;2024-01-06T23:24:29;97957.23;;;22.57;50.94
35758;BME280;21879;50.110;18.900;2024-01-06T23:34:56;97958.85;;;22.55;50.84
35758;BME280;21879;50.110;18.900;2024-01-06T23:45:24;97962.27;;;22.54;50.84
35758;BME280;21879;50.110;18.900;2024-01-06T23:55:51;97964.70;;;22.52;50.67
